Wheaton Aston, United Kingdom
Current Conditions -  °F | °C
As of 11:50 PM on Tuesday 25 Nov 2014 (Local Time) from EGOS Reporting Station
Light Rain Light Rain  
Wind Chill: 38°   Ceiling: Unl
Heat Index: 41°   Visibility: 2.2mi
Dew Point: 41°   Wind: 5mph
Humidity: 100%   Direction: 340°NNW
Pressure: 30.03"   Gusts: NA
Location:  52.71°N, 2.22°W
Report Text: EGOS 252350Z AUTO 34004KT 3600 -RA FEW060/// 05/05 Q1017
Loading
Personal Weather Stations






























Interactive Weather Map New forecast layout! Learn more

10-Day Weather Forecast

Advertisements
Track Severe Weather on mobile